sensor_id;sensor_type;location;lat;lon;timestamp;temperature;humidity
18266;DHT22;9259;48.194;16.322;2023-06-04T00:01:26;16.10;90.80
18266;DHT22;9259;48.194;16.322;2023-06-04T00:03:53;16.10;90.80
18266;DHT22;9259;48.194;16.322;2023-06-04T00:06:22;16.10;91.10
18266;DHT22;9259;48.194;16.322;2023-06-04T00:08:50;16.10;91.20
18266;DHT22;9259;48.194;16.322;2023-06-04T00:11:17;16.00;91.30
18266;DHT22;9259;48.194;16.322;2023-06-04T00:13:46;15.90;91.80
18266;DHT22;9259;48.194;16.322;2023-06-04T00:16:13;16.00;92.00
18266;DHT22;9259;48.194;16.322;2023-06-04T00:18:41;15.80;91.70
18266;DHT22;9259;48.194;16.322;2023-06-04T00:21:08;15.90;92.40
18266;DHT22;9259;48.194;16.322;2023-06-04T00:23:37;15.90;92.50
18266;DHT22;9259;48.194;16.322;2023-06-04T00:26:04;15.90;92.60
18266;DHT22;9259;48.194;16.322;2023-06-04T00:28:32;15.90;92.60
18266;DHT22;9259;48.194;16.322;2023-06-04T00:30:59;15.90;92.70
18266;DHT22;9259;48.194;16.322;2023-06-04T00:33:26;15.80;93.20
18266;DHT22;9259;48.194;16.322;2023-06-04T00:35:54;15.80;93.30
18266;DHT22;9259;48.194;16.322;2023-06-04T00:38:21;15.70;93.80
18266;DHT22;9259;48.194;16.322;2023-06-04T00:40:50;15.70;93.80
18266;DHT22;9259;48.194;16.322;2023-06-04T00:43:17;15.70;94.10
18266;DHT22;9259;48.194;16.322;2023-06-04T00:45:45;15.70;94.20
18266;DHT22;9259;48.194;16.322;2023-06-04T00:48:12;15.70;94.60
18266;DHT22;9259;48.194;16.322;2023-06-04T00:50:40;15.70;95.10
18266;DHT22;9259;48.194;16.322;2023-06-04T00:53:08;15.70;95.30
18266;DHT22;9259;48.194;16.322;2023-06-04T00:55:37;15.70;95.30
18266;DHT22;9259;48.194;16.322;2023-06-04T00:58:06;15.80;95.20
18266;DHT22;9259;48.194;16.322;2023-06-04T01:00:34;15.80;95.60
18266;DHT22;9259;48.194;16.322;2023-06-04T01:03:05;15.70;95.50
18266;DHT22;9259;48.194;16.322;2023-06-04T01:05:37;15.80;95.80
18266;DHT22;9259;48.194;16.322;2023-06-04T01:08:06;15.70;95.80
18266;DHT22;9259;48.194;16.322;2023-06-04T01:10:35;15.70;96.40
18266;DHT22;9259;48.194;16.322;2023-06-04T01:13:02;15.80;96.80
18266;DHT22;9259;48.194;16.322;2023-06-04T01:15:31;15.80;96.80
18266;DHT22;9259;48.194;16.322;2023-06-04T01:18:00;15.80;97.00
18266;DHT22;9259;48.194;16.322;2023-06-04T01:20:33;15.70;97.50
18266;DHT22;9259;48.194;16.322;2023-06-04T01:23:33;15.70;97.50
18266;DHT22;9259;48.194;16.322;2023-06-04T01:26:02;15.70;97.90
18266;DHT22;9259;48.194;16.322;2023-06-04T01:28:30;15.70;98.20
18266;DHT22;9259;48.194;16.322;2023-06-04T01:31:00;15.70;98.50
18266;DHT22;9259;48.194;16.322;2023-06-04T01:33:28;15.70;98.60
18266;DHT22;9259;48.194;16.322;2023-06-04T01:35:56;15.60;99.00
18266;DHT22;9259;48.194;16.322;2023-06-04T01:38:23;15.60;99.10
18266;DHT22;9259;48.194;16.322;2023-06-04T01:40:51;15.80;99.40
18266;DHT22;9259;48.194;16.322;2023-06-04T01:43:22;15.50;99.60
18266;DHT22;9259;48.194;16.322;2023-06-04T01:45:49;15.40;99.90
18266;DHT22;9259;48.194;16.322;2023-06-04T01:48:18;15.50;99.90
18266;DHT22;9259;48.194;16.322;2023-06-04T01:50:45;15.50;99.90
18266;DHT22;9259;48.194;16.322;2023-06-04T01:53:13;15.50;99.90
18266;DHT22;9259;48.194;16.322;2023-06-04T01:55:40;15.50;99.90
18266;DHT22;9259;48.194;16.322;2023-06-04T01:58:08;15.40;99.90
18266;DHT22;9259;48.194;16.322;2023-06-04T02:00:35;15.40;99.90
18266;DHT22;9259;48.194;16.322;2023-06-04T02:03:03;15.40;99.90
18266;DHT22;9259;48.194;16.322;2023-06-04T02:05:32;15.30;99.90
18266;DHT22;9259;48.194;16.322;2023-06-04T02:07:59;15.30;99.90
18266;DHT22;9259;48.194;16.322;2023-06-04T02:10:28;15.30;99.90
18266;DHT22;9259;48.194;16.322;2023-06-04T02:12:59;15.30;99.90
18266;DHT22;9259;48.194;16.322;2023-06-04T02:15:30;15.30;99.90
18266;DHT22;9259;48.194;16.322;2023-06-04T02:17:59;15.20;99.90
18266;DHT22;9259;48.194;16.322;2023-06-04T02:20:29;15.30;99.90
18266;DHT22;9259;48.194;16.322;2023-06-04T02:22:57;15.30;99.90
18266;DHT22;9259;48.194;16.322;2023-06-04T02:25:25;15.20;99.90
18266;DHT22;9259;48.194;16.322;2023-06-04T02:27:52;15.20;99.90
18266;DHT22;9259;48.194;16.322;2023-06-04T02:30:20;15.60;99.90
18266;DHT22;9259;48.194;16.322;2023-06-04T02:32:47;15.30;99.90
18266;DHT22;9259;48.194;16.322;2023-06-04T02:35:17;15.40;99.90
18266;DHT22;9259;48.194;16.322;2023-06-04T02:37:44;15.30;99.90
18266;DHT22;9259;48.194;16.322;2023-06-04T02:40:13;15.40;99.90
18266;DHT22;9259;48.194;16.322;2023-06-04T02:42:41;15.40;99.90
18266;DHT22;9259;48.194;16.322;2023-06-04T02:45:10;15.30;99.90
18266;DHT22;9259;48.194;16.322;2023-06-04T02:47:37;15.30;99.90
18266;DHT22;9259;48.194;16.322;2023-06-04T02:50:06;15.20;99.90
18266;DHT22;9259;48.194;16.322;2023-06-04T02:52:33;15.20;99.90
18266;DHT22;9259;48.194;16.322;2023-06-04T02:55:04;15.30;99.90
18266;DHT22;9259;48.194;16.322;2023-06-04T02:57:34;15.20;99.90
18266;DHT22;9259;48.194;16.322;2023-06-04T03:00:02;15.30;99.90
18266;DHT22;9259;48.194;16.322;2023-06-04T03:02:42;15.40;99.90
18266;DHT22;9259;48.194;16.322;2023-06-04T03:05:11;15.30;99.90
18266;DHT22;9259;48.194;16.322;2023-06-04T03:07:40;15.30;99.90
18266;DHT22;9259;48.194;16.322;2023-06-04T03:10:09;15.30;99.90
18266;DHT22;9259;48.194;16.322;2023-06-04T03:12:39;15.30;99.90
18266;DHT22;9259;48.194;16.322;2023-06-04T03:15:07;15.30;99.90
18266;DHT22;9259;48.194;16.322;2023-06-04T03:17:35;15.40;99.90
18266;DHT22;9259;48.194;16.322;2023-06-04T03:20:03;15.30;99.90
18266;DHT22;9259;48.194;16.322;2023-06-04T03:22:32;15.40;99.90
18266;DHT22;9259;48.194;16.322;2023-06-04T03:25:01;15.40;99.90
18266;DHT22;9259;48.194;16.322;2023-06-04T03:27:30;15.80;99.90
18266;DHT22;9259;48.194;16.322;2023-06-04T03:29:59;15.20;99.90
18266;DHT22;9259;48.194;16.322;2023-06-04T03:32:27;15.30;99.90
18266;DHT22;9259;48.194;16.322;2023-06-04T03:34:54;15.30;99.90
18266;DHT22;9259;48.194;16.322;2023-06-04T03:37:22;15.30;99.90
18266;DHT22;9259;48.194;16.322;2023-06-04T03:39:49;15.20;99.90
18266;DHT22;9259;48.194;16.322;2023-06-04T03:42:16;15.30;99.90
18266;DHT22;9259;48.194;16.322;2023-06-04T03:44:44;15.40;99.90
18266;DHT22;9259;48.194;16.322;2023-06-04T03:47:13;15.30;99.90
18266;DHT22;9259;48.194;16.322;2023-06-04T03:49:41;15.40;99.90
18266;DHT22;9259;48.194;16.322;2023-06-04T03:52:08;15.40;99.90
18266;DHT22;9259;48.194;16.322;2023-06-04T03:54:36;15.50;99.90
18266;DHT22;9259;48.194;16.322;2023-06-04T03:57:03;15.50;99.90
18266;DHT22;9259;48.194;16.322;2023-06-04T03:59:31;15.40;99.90
18266;DHT22;9259;48.194;16.322;2023-06-04T04:01:58;15.40;99.90
18266;DHT22;9259;48.194;16.322;2023-06-04T04:04:27;15.50;99.90
18266;DHT22;9259;48.194;16.322;2023-06-04T04:06:54;15.40;99.90
18266;DHT22;9259;48.194;16.322;2023-06-04T04:09:22;15.50;99.90
18266;DHT22;9259;48.194;16.322;2023-06-04T04:11:49;15.50;99.90
18266;DHT22;9259;48.194;16.322;2023-06-04T04:14:17;15.60;99.90
18266;DHT22;9259;48.194;16.322;2023-06-04T04:16:44;15.60;99.90
18266;DHT22;9259;48.194;16.322;2023-06-04T04:19:12;15.60;99.90
18266;DHT22;9259;48.194;16.322;2023-06-04T04:21:42;15.70;99.90
18266;DHT22;9259;48.194;16.322;2023-06-04T04:24:09;15.70;99.90
18266;DHT22;9259;48.194;16.322;2023-06-04T04:26:36;15.70;99.90
18266;DHT22;9259;48.194;16.322;2023-06-04T04:29:04;15.70;99.90
18266;DHT22;9259;48.194;16.322;2023-06-04T04:31:34;15.60;99.90
18266;DHT22;9259;48.194;16.322;2023-06-04T04:34:02;15.50;99.90
18266;DHT22;9259;48.194;16.322;2023-06-04T04:36:33;15.50;99.90
18266;DHT22;9259;48.194;16.322;2023-06-04T04:39:03;15.60;99.90
18266;DHT22;9259;48.194;16.322;2023-06-04T04:41:31;15.60;99.90
18266;DHT22;9259;48.194;16.322;2023-06-04T04:44:03;15.60;99.90
18266;DHT22;9259;48.194;16.322;2023-06-04T04:46:31;15.40;99.90
18266;DHT22;9259;48.194;16.322;2023-06-04T04:48:58;15.40;99.90
18266;DHT22;9259;48.194;16.322;2023-06-04T04:51:26;15.40;99.90
18266;DHT22;9259;48.194;16.322;2023-06-04T04:53:53;15.50;99.90
18266;DHT22;9259;48.194;16.322;2023-06-04T04:56:23;15.50;99.90
18266;DHT22;9259;48.194;16.322;2023-06-04T04:58:52;15.40;99.90
18266;DHT22;9259;48.194;16.322;2023-06-04T05:01:20;15.50;99.90
18266;DHT22;9259;48.194;16.322;2023-06-04T05:03:48;15.50;99.90
18266;DHT22;9259;48.194;16.322;2023-06-04T05:06:16;15.50;99.90
18266;DHT22;9259;48.194;16.322;2023-06-04T05:08:43;15.50;99.90
18266;DHT22;9259;48.194;16.322;2023-06-04T05:11:11;15.70;99.90
18266;DHT22;9259;48.194;16.322;2023-06-04T05:13:39;15.80;99.90
18266;DHT22;9259;48.194;16.322;2023-06-04T05:16:08;15.80;99.90
18266;DHT22;9259;48.194;16.322;2023-06-04T05:18:37;15.90;99.90
18266;DHT22;9259;48.194;16.322;2023-06-04T05:21:06;15.90;99.90
18266;DHT22;9259;48.194;16.322;2023-06-04T05:23:34;15.90;99.90
18266;DHT22;9259;48.194;16.322;2023-06-04T05:26:03;16.00;99.90
18266;DHT22;9259;48.194;16.322;2023-06-04T05:28:30;16.10;99.90
18266;DHT22;9259;48.194;16.322;2023-06-04T05:31:00;16.20;99.90
18266;DHT22;9259;48.194;16.322;2023-06-04T05:33:30;16.40;99.90
18266;DHT22;9259;48.194;16.322;2023-06-04T05:35:57;16.40;99.90
18266;DHT22;9259;48.194;16.322;2023-06-04T05:38:25;16.50;99.90
18266;DHT22;9259;48.194;16.322;2023-06-04T05:40:53;16.50;99.90
18266;DHT22;9259;48.194;16.322;2023-06-04T05:43:21;16.60;99.90
18266;DHT22;9259;48.194;16.322;2023-06-04T05:45:48;16.50;99.90
18266;DHT22;9259;48.194;16.322;2023-06-04T05:48:19;16.60;99.90
18266;DHT22;9259;48.194;16.322;2023-06-04T05:50:46;16.50;99.90
18266;DHT22;9259;48.194;16.322;2023-06-04T05:53:14;16.60;99.90
18266;DHT22;9259;48.194;16.322;2023-06-04T05:55:43;16.70;99.90
18266;DHT22;9259;48.194;16.322;2023-06-04T05:58:10;16.80;99.90
18266;DHT22;9259;48.194;16.322;2023-06-04T06:00:38;16.60;99.90
18266;DHT22;9259;48.194;16.322;2023-06-04T06:03:06;16.50;99.90
18266;DHT22;9259;48.194;16.322;2023-06-04T06:05:35;16.40;99.90
18266;DHT22;9259;48.194;16.322;2023-06-04T06:08:02;16.50;99.90
18266;DHT22;9259;48.194;16.322;2023-06-04T06:10:30;16.70;99.90
18266;DHT22;9259;48.194;16.322;2023-06-04T06:12:57;16.80;99.90
18266;DHT22;9259;48.194;16.322;2023-06-04T06:15:26;16.70;99.90
18266;DHT22;9259;48.194;16.322;2023-06-04T06:17:54;16.60;99.90
18266;DHT22;9259;48.194;16.322;2023-06-04T06:20:22;16.40;99.90
18266;DHT22;9259;48.194;16.322;2023-06-04T06:22:51;16.70;99.90
18266;DHT22;9259;48.194;16.322;2023-06-04T06:25:18;16.50;99.90
18266;DHT22;9259;48.194;16.322;2023-06-04T06:27:46;16.40;99.90
18266;DHT22;9259;48.194;16.322;2023-06-04T06:30:14;16.30;99.90
18266;DHT22;9259;48.194;16.322;2023-06-04T06:32:42;16.30;99.90
18266;DHT22;9259;48.194;16.322;2023-06-04T06:35:09;16.60;99.90
18266;DHT22;9259;48.194;16.322;2023-06-04T06:37:37;16.30;99.90
18266;DHT22;9259;48.194;16.322;2023-06-04T06:40:10;16.30;99.90
18266;DHT22;9259;48.194;16.322;2023-06-04T06:42:37;16.20;99.90
18266;DHT22;9259;48.194;16.322;2023-06-04T06:45:06;16.00;99.90
18266;DHT22;9259;48.194;16.322;2023-06-04T06:47:33;16.00;99.90
18266;DHT22;9259;48.194;16.322;2023-06-04T06:50:01;16.10;99.90
18266;DHT22;9259;48.194;16.322;2023-06-04T06:52:29;16.10;99.90
18266;DHT22;9259;48.194;16.322;2023-06-04T06:54:56;16.10;99.90
18266;DHT22;9259;48.194;16.322;2023-06-04T06:57:25;16.20;99.90
18266;DHT22;9259;48.194;16.322;2023-06-04T06:59:53;15.80;99.90
18266;DHT22;9259;48.194;16.322;2023-06-04T07:02:20;16.60;99.90
18266;DHT22;9259;48.194;16.322;2023-06-04T07:04:48;16.60;99.90
18266;DHT22;9259;48.194;16.322;2023-06-04T07:07:15;16.70;99.90
18266;DHT22;9259;48.194;16.322;2023-06-04T07:09:43;16.80;99.90
18266;DHT22;9259;48.194;16.322;2023-06-04T07:12:10;16.90;99.90
18266;DHT22;9259;48.194;16.322;2023-06-04T07:14:39;17.00;99.90
18266;DHT22;9259;48.194;16.322;2023-06-04T07:17:07;17.20;99.90
18266;DHT22;9259;48.194;16.322;2023-06-04T07:19:34;17.20;99.90
18266;DHT22;9259;48.194;16.322;2023-06-04T07:22:02;17.20;99.90
18266;DHT22;9259;48.194;16.322;2023-06-04T07:24:29;17.40;99.90
18266;DHT22;9259;48.194;16.322;2023-06-04T07:26:57;17.50;99.90
18266;DHT22;9259;48.194;16.322;2023-06-04T07:29:24;17.40;99.90
18266;DHT22;9259;48.194;16.322;2023-06-04T07:31:53;17.70;99.90
18266;DHT22;9259;48.194;16.322;2023-06-04T07:34:20;18.10;99.90
18266;DHT22;9259;48.194;16.322;2023-06-04T07:36:48;18.10;99.90
18266;DHT22;9259;48.194;16.322;2023-06-04T07:39:15;18.10;99.90
18266;DHT22;9259;48.194;16.322;2023-06-04T07:41:43;18.30;99.90
18266;DHT22;9259;48.194;16.322;2023-06-04T07:44:10;18.60;99.90
18266;DHT22;9259;48.194;16.322;2023-06-04T07:46:37;18.40;99.90
18266;DHT22;9259;48.194;16.322;2023-06-04T07:49:06;18.30;99.90
18266;DHT22;9259;48.194;16.322;2023-06-04T07:51:34;18.70;99.90
18266;DHT22;9259;48.194;16.322;2023-06-04T07:54:03;19.10;99.90
18266;DHT22;9259;48.194;16.322;2023-06-04T07:56:31;19.10;99.90
18266;DHT22;9259;48.194;16.322;2023-06-04T07:58:58;19.10;99.90
18266;DHT22;9259;48.194;16.322;2023-06-04T08:01:25;18.90;99.90
18266;DHT22;9259;48.194;16.322;2023-06-04T08:03:54;18.80;99.90
18266;DHT22;9259;48.194;16.322;2023-06-04T08:06:23;18.80;99.90
18266;DHT22;9259;48.194;16.322;2023-06-04T08:08:52;18.90;99.90
18266;DHT22;9259;48.194;16.322;2023-06-04T08:11:20;19.00;99.90
18266;DHT22;9259;48.194;16.322;2023-06-04T08:13:48;19.20;99.90
18266;DHT22;9259;48.194;16.322;2023-06-04T08:16:16;19.60;99.90
18266;DHT22;9259;48.194;16.322;2023-06-04T08:18:43;19.60;99.90
18266;DHT22;9259;48.194;16.322;2023-06-04T08:21:11;19.70;99.90
18266;DHT22;9259;48.194;16.322;2023-06-04T08:23:40;19.70;99.90
18266;DHT22;9259;48.194;16.322;2023-06-04T08:26:08;19.60;99.90
18266;DHT22;9259;48.194;16.322;2023-06-04T08:28:35;19.50;99.90
18266;DHT22;9259;48.194;16.322;2023-06-04T08:31:04;19.30;99.90
18266;DHT22;9259;48.194;16.322;2023-06-04T08:33:32;19.60;99.90
18266;DHT22;9259;48.194;16.322;2023-06-04T08:35:59;19.70;99.90
18266;DHT22;9259;48.194;16.322;2023-06-04T08:38:26;19.20;99.90
18266;DHT22;9259;48.194;16.322;2023-06-04T08:41:00;19.00;99.90
18266;DHT22;9259;48.194;16.322;2023-06-04T08:43:29;19.20;99.90
18266;DHT22;9259;48.194;16.322;2023-06-04T08:45:59;19.50;99.90
18266;DHT22;9259;48.194;16.322;2023-06-04T08:48:32;19.70;99.90
18266;DHT22;9259;48.194;16.322;2023-06-04T08:51:00;19.60;99.90
18266;DHT22;9259;48.194;16.322;2023-06-04T08:53:30;19.50;99.90
18266;DHT22;9259;48.194;16.322;2023-06-04T08:55:59;19.60;99.90
18266;DHT22;9259;48.194;16.322;2023-06-04T08:58:31;19.20;99.90
18266;DHT22;9259;48.194;16.322;2023-06-04T09:01:00;19.60;99.90
18266;DHT22;9259;48.194;16.322;2023-06-04T09:03:28;19.70;99.90
18266;DHT22;9259;48.194;16.322;2023-06-04T09:05:58;19.90;99.90
18266;DHT22;9259;48.194;16.322;2023-06-04T09:08:27;20.00;99.90
18266;DHT22;9259;48.194;16.322;2023-06-04T09:11:00;20.30;99.90
18266;DHT22;9259;48.194;16.322;2023-06-04T09:13:33;20.60;99.90
18266;DHT22;9259;48.194;16.322;2023-06-04T09:16:02;21.10;99.90
18266;DHT22;9259;48.194;16.322;2023-06-04T09:18:30;21.50;99.90
18266;DHT22;9259;48.194;16.322;2023-06-04T09:21:02;21.60;99.90
18266;DHT22;9259;48.194;16.322;2023-06-04T09:23:30;21.80;99.90
18266;DHT22;9259;48.194;16.322;2023-06-04T09:26:07;21.70;99.90
18266;DHT22;9259;48.194;16.322;2023-06-04T09:28:35;21.60;99.90
18266;DHT22;9259;48.194;16.322;2023-06-04T09:31:03;21.20;99.90
18266;DHT22;9259;48.194;16.322;2023-06-04T09:33:30;20.90;99.90
18266;DHT22;9259;48.194;16.322;2023-06-04T09:36:08;20.90;99.90
18266;DHT22;9259;48.194;16.322;2023-06-04T09:38:36;21.10;99.90
18266;DHT22;9259;48.194;16.322;2023-06-04T09:41:03;21.00;99.90
18266;DHT22;9259;48.194;16.322;2023-06-04T09:43:33;21.60;99.90
18266;DHT22;9259;48.194;16.322;2023-06-04T09:46:11;21.40;99.90
18266;DHT22;9259;48.194;16.322;2023-06-04T09:48:39;21.10;99.90
18266;DHT22;9259;48.194;16.322;2023-06-04T09:51:08;20.80;99.90
18266;DHT22;9259;48.194;16.322;2023-06-04T09:53:35;20.90;99.90
18266;DHT22;9259;48.194;16.322;2023-06-04T09:56:04;20.60;99.90
18266;DHT22;9259;48.194;16.322;2023-06-04T09:58:34;21.10;99.90
18266;DHT22;9259;48.194;16.322;2023-06-04T10:01:04;21.70;99.90
18266;DHT22;9259;48.194;16.322;2023-06-04T10:03:33;21.70;99.90
18266;DHT22;9259;48.194;16.322;2023-06-04T10:06:03;21.90;99.90
18266;DHT22;9259;48.194;16.322;2023-06-04T10:08:32;21.90;99.90
18266;DHT22;9259;48.194;16.322;2023-06-04T10:11:01;22.50;99.90
18266;DHT22;9259;48.194;16.322;2023-06-04T10:13:31;23.20;97.70
18266;DHT22;9259;48.194;16.322;2023-06-04T10:16:04;23.30;98.90
18266;DHT22;9259;48.194;16.322;2023-06-04T10:18:32;23.30;97.00
18266;DHT22;9259;48.194;16.322;2023-06-04T10:21:00;23.70;95.80
18266;DHT22;9259;48.194;16.322;2023-06-04T10:23:28;23.90;95.30
18266;DHT22;9259;48.194;16.322;2023-06-04T10:25:56;24.00;94.60
18266;DHT22;9259;48.194;16.322;2023-06-04T10:28:25;23.90;94.40
18266;DHT22;9259;48.194;16.322;2023-06-04T10:30:53;23.70;94.30
18266;DHT22;9259;48.194;16.322;2023-06-04T10:33:22;23.10;95.30
18266;DHT22;9259;48.194;16.322;2023-06-04T10:38:18;22.80;95.80
18266;DHT22;9259;48.194;16.322;2023-06-04T10:40:48;23.10;95.40
18266;DHT22;9259;48.194;16.322;2023-06-04T10:43:16;23.60;94.50
18266;DHT22;9259;48.194;16.322;2023-06-04T10:45:44;24.00;94.60
18266;DHT22;9259;48.194;16.322;2023-06-04T10:48:12;24.20;93.20
18266;DHT22;9259;48.194;16.322;2023-06-04T10:50:51;23.30;94.10
18266;DHT22;9259;48.194;16.322;2023-06-04T10:53:19;23.00;94.60
18266;DHT22;9259;48.194;16.322;2023-06-04T10:55:48;22.60;95.00
18266;DHT22;9259;48.194;16.322;2023-06-04T10:58:16;22.60;95.20
18266;DHT22;9259;48.194;16.322;2023-06-04T11:00:45;22.90;95.30
18266;DHT22;9259;48.194;16.322;2023-06-04T11:03:15;23.00;94.30
18266;DHT22;9259;48.194;16.322;2023-06-04T11:05:44;23.40;95.80
18266;DHT22;9259;48.194;16.322;2023-06-04T11:08:14;24.10;93.70
18266;DHT22;9259;48.194;16.322;2023-06-04T11:10:44;24.40;93.10
18266;DHT22;9259;48.194;16.322;2023-06-04T11:13:12;24.20;93.70
18266;DHT22;9259;48.194;16.322;2023-06-04T11:15:40;24.40;92.20
18266;DHT22;9259;48.194;16.322;2023-06-04T11:18:08;24.00;91.90
18266;DHT22;9259;48.194;16.322;2023-06-04T11:20:35;23.00;92.90
18266;DHT22;9259;48.194;16.322;2023-06-04T11:23:02;22.30;93.60
18266;DHT22;9259;48.194;16.322;2023-06-04T11:25:33;22.10;94.60
18266;DHT22;9259;48.194;16.322;2023-06-04T11:28:01;22.70;94.50
18266;DHT22;9259;48.194;16.322;2023-06-04T11:30:28;22.30;94.30
18266;DHT22;9259;48.194;16.322;2023-06-04T11:33:03;21.60;94.00
18266;DHT22;9259;48.194;16.322;2023-06-04T11:35:31;22.60;94.20
18266;DHT22;9259;48.194;16.322;2023-06-04T11:38:06;22.90;93.60
18266;DHT22;9259;48.194;16.322;2023-06-04T11:40:35;22.90;94.00
18266;DHT22;9259;48.194;16.322;2023-06-04T11:43:02;23.10;93.90
18266;DHT22;9259;48.194;16.322;2023-06-04T11:45:30;24.00;92.60
18266;DHT22;9259;48.194;16.322;2023-06-04T11:47:58;23.60;92.80
18266;DHT22;9259;48.194;16.322;2023-06-04T11:50:27;23.60;93.20
18266;DHT22;9259;48.194;16.322;2023-06-04T11:52:55;23.50;93.20
18266;DHT22;9259;48.194;16.322;2023-06-04T11:55:23;24.20;93.00
18266;DHT22;9259;48.194;16.322;2023-06-04T11:57:53;24.40;92.90
18266;DHT22;9259;48.194;16.322;2023-06-04T12:00:21;23.80;92.10
18266;DHT22;9259;48.194;16.322;2023-06-04T12:02:50;23.70;92.90
18266;DHT22;9259;48.194;16.322;2023-06-04T12:05:20;24.40;92.40
18266;DHT22;9259;48.194;16.322;2023-06-04T12:07:49;24.50;91.50
18266;DHT22;9259;48.194;16.322;2023-06-04T12:10:18;24.30;91.60
18266;DHT22;9259;48.194;16.322;2023-06-04T12:12:45;23.60;92.60
18266;DHT22;9259;48.194;16.322;2023-06-04T12:15:19;23.50;93.10
18266;DHT22;9259;48.194;16.322;2023-06-04T12:17:50;24.20;92.00
18266;DHT22;9259;48.194;16.322;2023-06-04T12:20:18;23.70;93.10
18266;DHT22;9259;48.194;16.322;2023-06-04T12:22:46;24.20;93.40
18266;DHT22;9259;48.194;16.322;2023-06-04T12:25:24;24.40;91.90
18266;DHT22;9259;48.194;16.322;2023-06-04T12:27:52;23.30;92.40
18266;DHT22;9259;48.194;16.322;2023-06-04T12:30:21;22.80;93.30
18266;DHT22;9259;48.194;16.322;2023-06-04T12:32:49;22.80;93.80
18266;DHT22;9259;48.194;16.322;2023-06-04T12:35:17;22.90;93.40
18266;DHT22;9259;48.194;16.322;2023-06-04T12:37:45;23.10;93.20
18266;DHT22;9259;48.194;16.322;2023-06-04T12:40:12;23.30;93.60
18266;DHT22;9259;48.194;16.322;2023-06-04T12:42:40;22.80;93.50
18266;DHT22;9259;48.194;16.322;2023-06-04T12:45:10;22.90;93.50
18266;DHT22;9259;48.194;16.322;2023-06-04T12:47:41;22.80;94.10
18266;DHT22;9259;48.194;16.322;2023-06-04T12:50:10;23.10;93.80
18266;DHT22;9259;48.194;16.322;2023-06-04T12:52:37;23.20;94.20
18266;DHT22;9259;48.194;16.322;2023-06-04T12:55:07;23.10;93.90
18266;DHT22;9259;48.194;16.322;2023-06-04T12:57:35;23.30;93.70
18266;DHT22;9259;48.194;16.322;2023-06-04T13:00:02;23.40;93.30
18266;DHT22;9259;48.194;16.322;2023-06-04T13:02:31;23.00;94.10
18266;DHT22;9259;48.194;16.322;2023-06-04T13:04:59;22.90;94.10
18266;DHT22;9259;48.194;16.322;2023-06-04T13:07:27;22.60;94.40
18266;DHT22;9259;48.194;16.322;2023-06-04T13:09:54;22.30;95.20
18266;DHT22;9259;48.194;16.322;2023-06-04T13:12:22;22.40;95.50
18266;DHT22;9259;48.194;16.322;2023-06-04T13:14:49;22.50;95.50
18266;DHT22;9259;48.194;16.322;2023-06-04T13:17:16;23.00;95.30
18266;DHT22;9259;48.194;16.322;2023-06-04T13:19:44;23.00;95.00
18266;DHT22;9259;48.194;16.322;2023-06-04T13:22:13;23.10;94.70
18266;DHT22;9259;48.194;16.322;2023-06-04T13:24:41;23.10;95.10
18266;DHT22;9259;48.194;16.322;2023-06-04T13:27:08;22.90;95.20
18266;DHT22;9259;48.194;16.322;2023-06-04T13:29:36;22.70;95.80
18266;DHT22;9259;48.194;16.322;2023-06-04T13:32:03;22.90;95.80
18266;DHT22;9259;48.194;16.322;2023-06-04T13:34:31;22.80;95.70
18266;DHT22;9259;48.194;16.322;2023-06-04T13:36:59;22.70;96.30
18266;DHT22;9259;48.194;16.322;2023-06-04T13:39:28;23.00;96.70
18266;DHT22;9259;48.194;16.322;2023-06-04T13:41:55;23.00;96.00
18266;DHT22;9259;48.194;16.322;2023-06-04T13:44:23;23.10;96.10
18266;DHT22;9259;48.194;16.322;2023-06-04T13:46:52;23.10;96.00
18266;DHT22;9259;48.194;16.322;2023-06-04T13:49:20;22.90;95.90
18266;DHT22;9259;48.194;16.322;2023-06-04T13:51:47;23.10;96.00
18266;DHT22;9259;48.194;16.322;2023-06-04T13:54:15;22.80;96.80
18266;DHT22;9259;48.194;16.322;2023-06-04T13:56:44;23.70;95.80
18266;DHT22;9259;48.194;16.322;2023-06-04T13:59:11;24.00;95.20
18266;DHT22;9259;48.194;16.322;2023-06-04T14:01:38;23.40;95.40
18266;DHT22;9259;48.194;16.322;2023-06-04T14:04:07;23.40;96.00
18266;DHT22;9259;48.194;16.322;2023-06-04T14:06:35;23.00;96.70
18266;DHT22;9259;48.194;16.322;2023-06-04T14:09:04;22.90;97.10
18266;DHT22;9259;48.194;16.322;2023-06-04T14:11:31;22.40;97.70
18266;DHT22;9259;48.194;16.322;2023-06-04T14:14:01;22.10;98.60
18266;DHT22;9259;48.194;16.322;2023-06-04T14:16:28;22.50;97.80
18266;DHT22;9259;48.194;16.322;2023-06-04T14:18:56;23.10;96.60
18266;DHT22;9259;48.194;16.322;2023-06-04T14:21:23;22.90;96.50
18266;DHT22;9259;48.194;16.322;2023-06-04T14:23:51;22.80;96.80
18266;DHT22;9259;48.194;16.322;2023-06-04T14:26:18;23.20;96.10
18266;DHT22;9259;48.194;16.322;2023-06-04T14:28:46;22.80;96.30
18266;DHT22;9259;48.194;16.322;2023-06-04T14:31:15;23.00;95.40
18266;DHT22;9259;48.194;16.322;2023-06-04T14:33:42;22.60;96.10
18266;DHT22;9259;48.194;16.322;2023-06-04T14:36:10;22.30;95.60
18266;DHT22;9259;48.194;16.322;2023-06-04T14:38:37;22.10;95.40
18266;DHT22;9259;48.194;16.322;2023-06-04T14:41:05;22.40;95.30
18266;DHT22;9259;48.194;16.322;2023-06-04T14:43:32;22.80;95.00
18266;DHT22;9259;48.194;16.322;2023-06-04T14:46:00;23.50;95.30
18266;DHT22;9259;48.194;16.322;2023-06-04T14:48:28;24.00;92.90
18266;DHT22;9259;48.194;16.322;2023-06-04T14:50:56;24.70;92.10
18266;DHT22;9259;48.194;16.322;2023-06-04T14:53:23;25.30;90.80
18266;DHT22;9259;48.194;16.322;2023-06-04T14:55:51;24.70;90.90
18266;DHT22;9259;48.194;16.322;2023-06-04T14:58:19;24.30;91.90
18266;DHT22;9259;48.194;16.322;2023-06-04T15:00:46;24.10;91.90
18266;DHT22;9259;48.194;16.322;2023-06-04T15:03:13;23.50;92.70
18266;DHT22;9259;48.194;16.322;2023-06-04T15:05:42;23.20;92.70
18266;DHT22;9259;48.194;16.322;2023-06-04T15:08:10;22.50;94.10
18266;DHT22;9259;48.194;16.322;2023-06-04T15:10:37;22.40;94.60
18266;DHT22;9259;48.194;16.322;2023-06-04T15:13:05;22.20;94.70
18266;DHT22;9259;48.194;16.322;2023-06-04T15:15:32;22.30;95.00
18266;DHT22;9259;48.194;16.322;2023-06-04T15:17:59;22.30;95.30
18266;DHT22;9259;48.194;16.322;2023-06-04T15:20:27;22.30;95.90
18266;DHT22;9259;48.194;16.322;2023-06-04T15:22:56;22.30;96.20
18266;DHT22;9259;48.194;16.322;2023-06-04T15:25:23;21.90;96.90
18266;DHT22;9259;48.194;16.322;2023-06-04T15:27:51;21.40;97.90
18266;DHT22;9259;48.194;16.322;2023-06-04T15:30:18;21.10;99.20
18266;DHT22;9259;48.194;16.322;2023-06-04T15:32:46;20.80;99.90
18266;DHT22;9259;48.194;16.322;2023-06-04T15:35:14;20.70;99.90
18266;DHT22;9259;48.194;16.322;2023-06-04T15:37:41;20.50;99.90
18266;DHT22;9259;48.194;16.322;2023-06-04T15:40:10;20.50;99.90